Time;durP1;ratioP1;P1;durP2;ratioP2;P2;SDS_P1;SDS_P2;PMS_P1;PMS_P2;Temp;Humidity;BMP_temperature;BMP_pressure;BME280_temperature;BME280_humidity;BME280_pressure;Samples;Min_cycle;Max_cycle;Signal;HPM_P1;HPM_P2
2022/07/16 00:01:23;;;;;;;2.77;1.97;;;;;;;;;;5006288;28;20253;-74
2022/07/16 00:04:00;;;;;;;1.80;1.60;;;;;;;;;;5003143;28;20183;-74
2022/07/16 00:06:28;;;;;;;3.30;2.03;;;;;;;;;;5008044;28;20178;-74
2022/07/16 00:08:54;;;;;;;3.57;2.00;;;;;;;;;;5006698;28;20639;-74
2022/07/16 00:11:21;;;;;;;3.97;2.07;;;;;;;;;;4994676;28;20207;-73
2022/07/16 00:13:48;;;;;;;4.37;2.20;;;;;;;;;;5008963;28;20554;-73
2022/07/16 00:16:14;;;;;;;4.27;2.10;;;;;;;;;;5006662;28;20184;-73
2022/07/16 00:21:27;;;;;;;2.83;2.03;;;;;;;;;;5001984;28;20758;-74
2022/07/16 00:23:53;;;;;;;4.10;2.22;;;;;;;;;;5006901;28;20463;-73
2022/07/16 00:26:19;;;;;;;3.40;2.10;;;;;;;;;;5009613;28;20190;-74
2022/07/16 00:28:46;;;;;;;4.13;1.97;;;;;;;;;;5002276;28;20180;-74
2022/07/16 00:31:12;;;;;;;5.40;2.20;;;;;;;;;;5010618;28;20251;-74
2022/07/16 00:33:39;;;;;;;3.07;2.00;;;;;;;;;;5007863;28;20184;-73
2022/07/16 00:36:05;;;;;;;4.07;2.37;;;;;;;;;;5006549;28;20182;-74
2022/07/16 00:38:31;;;;;;;2.70;1.90;;;;;;;;;;5007901;28;20245;-73
2022/07/16 00:40:58;;;;;;;6.03;2.50;;;;;;;;;;5010163;28;20570;-73
2022/07/16 00:43:24;;;;;;;2.63;2.00;;;;;;;;;;5005151;28;20179;-74
2022/07/16 00:45:50;;;;;;;5.07;2.17;;;;;;;;;;5007862;28;20199;-74
2022/07/16 00:48:16;;;;;;;2.73;2.00;;;;;;;;;;5011802;28;20187;-74
2022/07/16 00:50:43;;;;;;;4.13;2.00;;;;;;;;;;5007663;28;20216;-74
2022/07/16 00:53:10;;;;;;;4.20;2.13;;;;;;;;;;5009340;28;20193;-74
2022/07/16 00:55:37;;;;;;;4.37;2.47;;;;;;;;;;5011950;28;20182;-74
2022/07/16 00:58:03;;;;;;;3.20;2.20;;;;;;;;;;5010732;28;20214;-74
2022/07/16 01:00:29;;;;;;;3.70;2.70;;;;;;;;;;5010796;28;20680;-74
2022/07/16 01:02:57;;;;;;;4.50;2.60;;;;;;;;;;5005110;28;20663;-73
2022/07/16 01:05:23;;;;;;;6.27;2.47;;;;;;;;;;5002963;28;20244;-73
2022/07/16 01:07:50;;;;;;;5.83;3.10;;;;;;;;;;5009664;28;20666;-73
2022/07/16 01:10:18;;;;;;;6.77;2.80;;;;;;;;;;5010367;28;20218;-73
2022/07/16 01:12:45;;;;;;;3.63;2.30;;;;;;;;;;5012014;28;20750;-74
2022/07/16 01:15:12;;;;;;;3.73;2.30;;;;;;;;;;5008211;28;20182;-73
2022/07/16 01:17:38;;;;;;;3.10;2.50;;;;;;;;;;5008972;28;20237;-73
2022/07/16 01:20:06;;;;;;;4.10;2.33;;;;;;;;;;5007686;28;20203;-74
2022/07/16 01:22:32;;;;;;;5.83;2.60;;;;;;;;;;5006464;28;20215;-74
2022/07/16 01:24:59;;;;;;;3.90;2.17;;;;;;;;;;5008965;28;20650;-74
2022/07/16 01:27:25;;;;;;;3.63;2.47;;;;;;;;;;5004584;28;20237;-73
2022/07/16 01:29:51;;;;;;;3.07;2.10;;;;;;;;;;5011822;28;20191;-73
2022/07/16 01:32:17;;;;;;;3.60;2.10;;;;;;;;;;5009318;28;20215;-73
2022/07/16 01:34:43;;;;;;;3.23;2.17;;;;;;;;;;5004287;28;20184;-73
2022/07/16 01:37:10;;;;;;;4.03;2.20;;;;;;;;;;5008358;28;20565;-73
2022/07/16 01:39:38;;;;;;;2.80;2.50;;;;;;;;;;5007284;28;20193;-73
2022/07/16 01:42:05;;;;;;;3.73;3.00;;;;;;;;;;5010543;28;20226;-73
2022/07/16 01:44:31;;;;;;;4.43;3.00;;;;;;;;;;5010540;28;20266;-73
2022/07/16 01:46:58;;;;;;;4.03;2.53;;;;;;;;;;5011757;28;20215;-73
2022/07/16 01:49:25;;;;;;;4.33;2.50;;;;;;;;;;5008531;28;20234;-74
2022/07/16 01:51:52;;;;;;;3.57;2.43;;;;;;;;;;5005651;28;20215;-73
2022/07/16 01:54:18;;;;;;;5.30;2.90;;;;;;;;;;5011431;28;20694;-73
2022/07/16 01:56:44;;;;;;;3.87;2.90;;;;;;;;;;5008328;28;20184;-74
2022/07/16 01:59:10;;;;;;;3.63;2.77;;;;;;;;;;5002756;28;20596;-73
2022/07/16 02:01:37;;;;;;;3.27;2.67;;;;;;;;;;5005379;28;20207;-73
2022/07/16 02:04:03;;;;;;;6.37;2.90;;;;;;;;;;5005902;28;20183;-74
2022/07/16 02:06:29;;;;;;;4.30;2.87;;;;;;;;;;5005146;28;20183;-74
2022/07/16 02:08:55;;;;;;;3.20;2.70;;;;;;;;;;5008439;28;20276;-74
2022/07/16 02:11:21;;;;;;;3.47;2.67;;;;;;;;;;5003952;28;20210;-73
2022/07/16 02:13:47;;;;;;;5.03;2.80;;;;;;;;;;5010852;28;20647;-73
2022/07/16 02:16:14;;;;;;;4.37;2.90;;;;;;;;;;5007432;28;20179;-74
2022/07/16 02:18:40;;;;;;;4.23;3.23;;;;;;;;;;5004501;28;20277;-75
2022/07/16 02:21:06;;;;;;;4.20;2.70;;;;;;;;;;5007241;28;20222;-74
2022/07/16 02:23:32;;;;;;;3.80;2.70;;;;;;;;;;5011245;28;20522;-74
2022/07/16 02:25:58;;;;;;;3.63;2.60;;;;;;;;;;5008877;28;20183;-74
2022/07/16 02:28:25;;;;;;;4.53;3.30;;;;;;;;;;5010270;28;20721;-74
2022/07/16 02:30:51;;;;;;;4.17;2.70;;;;;;;;;;5010232;28;20658;-74
2022/07/16 02:33:18;;;;;;;3.37;2.70;;;;;;;;;;5011671;28;20257;-74
2022/07/16 02:35:45;;;;;;;3.53;2.73;;;;;;;;;;4990446;28;20195;-74
2022/07/16 02:38:12;;;;;;;3.53;3.00;;;;;;;;;;5006324;28;20211;-74
2022/07/16 02:40:39;;;;;;;3.10;2.80;;;;;;;;;;5004694;28;20195;-74
2022/07/16 02:43:06;;;;;;;3.10;2.80;;;;;;;;;;5009971;28;20234;-74
2022/07/16 02:45:34;;;;;;;4.20;2.87;;;;;;;;;;4997884;28;20180;-74
2022/07/16 02:48:00;;;;;;;5.73;3.10;;;;;;;;;;5010006;28;20275;-74
2022/07/16 02:50:26;;;;;;;4.73;3.00;;;;;;;;;;5007386;28;20191;-74
2022/07/16 02:52:53;;;;;;;3.83;2.50;;;;;;;;;;5008209;28;20221;-74
2022/07/16 02:55:19;;;;;;;3.73;2.70;;;;;;;;;;5006636;28;20183;-74
2022/07/16 02:57:45;;;;;;;4.47;2.57;;;;;;;;;;5010528;28;20182;-74
2022/07/16 03:00:13;;;;;;;3.47;2.40;;;;;;;;;;5006323;28;20190;-74
2022/07/16 03:02:39;;;;;;;3.73;2.77;;;;;;;;;;5007886;28;20198;-74
2022/07/16 03:05:06;;;;;;;2.33;2.10;;;;;;;;;;5002197;28;20189;-74
2022/07/16 03:07:32;;;;;;;3.97;2.43;;;;;;;;;;5007778;28;20176;-74
2022/07/16 03:09:58;;;;;;;3.77;2.77;;;;;;;;;;4992802;28;20191;-74
2022/07/16 03:12:24;;;;;;;3.73;2.73;;;;;;;;;;5005540;28;20561;-74
2022/07/16 03:14:50;;;;;;;3.67;2.87;;;;;;;;;;5010482;28;20186;-74
2022/07/16 03:17:16;;;;;;;4.77;2.70;;;;;;;;;;5005415;28;20246;-74
2022/07/16 03:19:43;;;;;;;4.93;3.07;;;;;;;;;;5007319;28;20678;-74
2022/07/16 03:22:09;;;;;;;5.23;3.33;;;;;;;;;;5002477;28;20218;-74
2022/07/16 03:24:35;;;;;;;4.40;3.00;;;;;;;;;;5006189;28;20195;-74
2022/07/16 03:27:01;;;;;;;4.63;2.83;;;;;;;;;;5007484;28;20328;-74
2022/07/16 03:29:28;;;;;;;4.70;2.73;;;;;;;;;;5001912;28;20192;-74
2022/07/16 03:31:54;;;;;;;5.47;3.00;;;;;;;;;;5004918;28;20211;-74
2022/07/16 03:34:20;;;;;;;5.90;2.90;;;;;;;;;;5009304;28;20186;-74
2022/07/16 03:36:46;;;;;;;4.27;2.70;;;;;;;;;;5006723;28;20175;-74
2022/07/16 03:39:13;;;;;;;3.43;2.70;;;;;;;;;;5008443;28;20205;-74
2022/07/16 03:41:39;;;;;;;3.87;2.90;;;;;;;;;;5006194;28;20203;-74
2022/07/16 03:44:07;;;;;;;4.40;2.90;;;;;;;;;;4991936;28;20191;-74
2022/07/16 03:46:33;;;;;;;3.70;2.77;;;;;;;;;;5004029;28;20187;-74
2022/07/16 03:48:59;;;;;;;3.60;2.90;;;;;;;;;;5000920;28;20180;-74
2022/07/16 03:51:25;;;;;;;3.30;2.83;;;;;;;;;;5004151;28;20215;-74
2022/07/16 03:53:52;;;;;;;2.97;2.63;;;;;;;;;;5008357;28;20190;-74
2022/07/16 03:56:18;;;;;;;3.83;3.07;;;;;;;;;;5007547;28;20187;-74
2022/07/16 03:58:44;;;;;;;4.33;2.80;;;;;;;;;;5007059;28;20190;-74
2022/07/16 04:01:10;;;;;;;4.67;2.63;;;;;;;;;;5003419;28;20207;-74
2022/07/16 04:03:37;;;;;;;3.87;3.10;;;;;;;;;;5008654;28;20703;-74
2022/07/16 04:06:04;;;;;;;5.77;2.77;;;;;;;;;;5011925;28;20175;-74
2022/07/16 04:08:30;;;;;;;3.77;2.53;;;;;;;;;;5011321;28;20654;-74
2022/07/16 04:10:57;;;;;;;2.90;2.50;;;;;;;;;;5008410;28;20206;-74
2022/07/16 04:13:23;;;;;;;3.60;2.73;;;;;;;;;;5011538;28;20175;-74
2022/07/16 04:15:49;;;;;;;5.53;2.83;;;;;;;;;;5010461;28;20547;-74
2022/07/16 04:18:15;;;;;;;5.57;3.20;;;;;;;;;;5010180;28;20190;-74
2022/07/16 04:20:42;;;;;;;5.63;3.03;;;;;;;;;;4991593;28;20204;-74
2022/07/16 04:23:08;;;;;;;6.70;3.30;;;;;;;;;;5010331;28;20686;-74
2022/07/16 04:25:34;;;;;;;7.17;3.30;;;;;;;;;;5015111;28;20186;-74
2022/07/16 04:28:00;;;;;;;4.80;3.20;;;;;;;;;;4994122;28;20282;-74
2022/07/16 04:30:27;;;;;;;4.07;3.13;;;;;;;;;;5011029;28;20186;-74
2022/07/16 04:32:53;;;;;;;4.30;3.57;;;;;;;;;;5005210;28;20236;-74
2022/07/16 04:35:19;;;;;;;3.17;2.87;;;;;;;;;;5013609;28;20305;-74
2022/07/16 04:37:45;;;;;;;6.03;3.20;;;;;;;;;;5013934;28;20631;-74
2022/07/16 04:40:12;;;;;;;4.77;3.10;;;;;;;;;;5008043;28;20231;-74
2022/07/16 04:42:42;;;;;;;4.83;2.73;;;;;;;;;;5009732;28;20214;-74
2022/07/16 04:45:09;;;;;;;3.07;2.60;;;;;;;;;;5009167;28;20187;-74
2022/07/16 04:47:35;;;;;;;4.43;2.80;;;;;;;;;;5009110;28;20187;-74
2022/07/16 04:50:01;;;;;;;3.80;2.90;;;;;;;;;;5012069;28;20193;-74
2022/07/16 04:52:30;;;;;;;4.23;2.83;;;;;;;;;;5008241;28;20638;-74
2022/07/16 04:54:56;;;;;;;3.47;2.90;;;;;;;;;;5012073;28;20183;-74
2022/07/16 04:57:22;;;;;;;4.20;3.30;;;;;;;;;;5007734;28;20241;-74
2022/07/16 04:59:49;;;;;;;5.43;2.50;;;;;;;;;;5008959;28;20207;-74
2022/07/16 05:04:59;;;;;;;3.60;2.90;;;;;;;;;;5009136;28;20205;-74
2022/07/16 05:07:25;;;;;;;4.37;2.80;;;;;;;;;;4992416;28;20270;-74
2022/07/16 05:09:52;;;;;;;3.67;2.60;;;;;;;;;;5011361;28;20193;-74
2022/07/16 05:12:18;;;;;;;4.20;2.63;;;;;;;;;;4991103;28;20215;-74
2022/07/16 05:14:44;;;;;;;3.93;2.47;;;;;;;;;;5011549;28;20179;-74
2022/07/16 05:17:10;;;;;;;4.10;2.63;;;;;;;;;;5006979;28;20191;-74
2022/07/16 05:19:36;;;;;;;4.23;2.70;;;;;;;;;;5013353;28;20176;-74
2022/07/16 05:22:04;;;;;;;3.07;2.30;;;;;;;;;;5010296;28;20203;-74
2022/07/16 05:24:31;;;;;;;2.90;2.47;;;;;;;;;;5010088;28;20294;-75
2022/07/16 05:26:57;;;;;;;4.07;2.50;;;;;;;;;;4991276;28;20573;-74
2022/07/16 05:29:23;;;;;;;3.80;2.60;;;;;;;;;;5009926;28;20183;-74
2022/07/16 05:31:49;;;;;;;3.20;2.53;;;;;;;;;;5008371;28;20219;-74
2022/07/16 05:34:15;;;;;;;3.23;2.40;;;;;;;;;;5009865;28;20194;-74
2022/07/16 05:36:42;;;;;;;2.63;2.23;;;;;;;;;;5007374;28;20665;-74
2022/07/16 05:39:08;;;;;;;4.10;2.53;;;;;;;;;;5003423;28;20191;-74
2022/07/16 05:41:34;;;;;;;2.10;1.90;;;;;;;;;;5005968;28;20226;-74
2022/07/16 05:44:00;;;;;;;3.03;2.10;;;;;;;;;;5010170;28;20183;-74
2022/07/16 05:46:27;;;;;;;2.87;2.17;;;;;;;;;;5009335;28;20180;-74
2022/07/16 05:48:53;;;;;;;3.23;2.40;;;;;;;;;;5011051;28;20219;-74
2022/07/16 05:51:19;;;;;;;2.93;2.17;;;;;;;;;;5008732;28;20290;-74
2022/07/16 05:53:45;;;;;;;4.10;2.30;;;;;;;;;;5008249;28;20619;-74
2022/07/16 05:56:11;;;;;;;3.10;2.30;;;;;;;;;;5008006;28;20278;-74
2022/07/16 05:58:37;;;;;;;2.57;2.17;;;;;;;;;;5008726;28;20215;-74
2022/07/16 06:01:03;;;;;;;3.47;2.40;;;;;;;;;;5008611;28;20230;-74
2022/07/16 06:03:30;;;;;;;3.77;2.30;;;;;;;;;;5010682;28;20942;-74
2022/07/16 06:05:56;;;;;;;4.70;2.60;;;;;;;;;;5005736;28;20962;-74
2022/07/16 06:08:22;;;;;;;3.27;2.40;;;;;;;;;;5002916;28;20811;-76
2022/07/16 06:10:48;;;;;;;4.60;2.60;;;;;;;;;;5004834;28;20552;-75
2022/07/16 06:13:14;;;;;;;5.73;2.40;;;;;;;;;;5010908;28;20179;-73
2022/07/16 06:15:41;;;;;;;5.13;2.80;;;;;;;;;;5008280;28;20179;-74
2022/07/16 06:18:07;;;;;;;3.67;2.73;;;;;;;;;;5006928;28;20570;-75
2022/07/16 06:20:33;;;;;;;5.30;3.07;;;;;;;;;;5009531;28;20227;-74
2022/07/16 06:22:59;;;;;;;3.90;2.73;;;;;;;;;;5002825;28;20191;-74
2022/07/16 06:25:29;;;;;;;4.07;2.80;;;;;;;;;;5000611;28;20260;-74
2022/07/16 06:27:55;;;;;;;5.30;2.80;;;;;;;;;;5002424;28;20195;-74
2022/07/16 06:30:21;;;;;;;3.53;2.70;;;;;;;;;;5002370;28;20199;-74
2022/07/16 06:32:47;;;;;;;4.53;2.50;;;;;;;;;;5000833;28;20215;-74
2022/07/16 06:35:14;;;;;;;3.33;2.23;;;;;;;;;;5001911;28;20179;-74
2022/07/16 06:37:40;;;;;;;3.87;2.33;;;;;;;;;;5000988;28;20179;-74
2022/07/16 06:40:07;;;;;;;3.00;2.10;;;;;;;;;;4999069;28;20305;-73
2022/07/16 06:42:33;;;;;;;4.20;2.47;;;;;;;;;;5003491;28;20207;-74
2022/07/16 06:44:59;;;;;;;4.07;2.30;;;;;;;;;;5000927;28;20179;-74
2022/07/16 06:47:26;;;;;;;4.17;2.60;;;;;;;;;;5002914;28;20195;-74
2022/07/16 06:49:53;;;;;;;3.10;2.30;;;;;;;;;;4990506;28;20716;-74
2022/07/16 06:52:19;;;;;;;3.63;2.37;;;;;;;;;;5006092;28;20215;-74
2022/07/16 06:54:46;;;;;;;3.43;2.20;;;;;;;;;;5009051;28;20241;-74
2022/07/16 06:57:12;;;;;;;4.10;2.30;;;;;;;;;;5008945;28;20257;-74
2022/07/16 06:59:38;;;;;;;3.43;2.13;;;;;;;;;;5006482;28;20175;-74
2022/07/16 07:02:04;;;;;;;3.30;2.10;;;;;;;;;;5006000;28;20207;-74
2022/07/16 07:04:31;;;;;;;3.40;2.30;;;;;;;;;;5005341;28;20191;-74
2022/07/16 07:06:57;;;;;;;4.70;2.67;;;;;;;;;;5003078;28;20238;-75
2022/07/16 07:09:23;;;;;;;3.83;2.70;;;;;;;;;;4998307;28;20720;-74
2022/07/16 07:11:49;;;;;;;2.50;1.90;;;;;;;;;;5004567;28;20256;-73
2022/07/16 07:14:15;;;;;;;3.53;2.30;;;;;;;;;;5003104;28;20184;-73
2022/07/16 07:16:41;;;;;;;3.60;2.03;;;;;;;;;;5001222;28;20190;-73
2022/07/16 07:19:08;;;;;;;4.93;1.97;;;;;;;;;;5001434;28;20179;-75
2022/07/16 07:21:34;;;;;;;3.80;2.00;;;;;;;;;;5004781;28;20218;-74
2022/07/16 07:24:00;;;;;;;4.53;1.73;;;;;;;;;;5003234;28;20191;-74
2022/07/16 07:26:27;;;;;;;2.37;1.90;;;;;;;;;;5001372;28;20183;-73
2022/07/16 07:28:53;;;;;;;1.97;1.60;;;;;;;;;;5000664;28;20190;-73
2022/07/16 07:31:19;;;;;;;3.63;2.07;;;;;;;;;;5001318;28;20650;-73
2022/07/16 07:33:45;;;;;;;2.53;1.70;;;;;;;;;;5002551;28;20191;-73
2022/07/16 07:36:11;;;;;;;2.83;1.80;;;;;;;;;;4999125;28;20183;-74
2022/07/16 07:38:38;;;;;;;2.17;1.70;;;;;;;;;;5002136;28;20171;-75
2022/07/16 07:41:04;;;;;;;2.37;1.70;;;;;;;;;;5003814;28;20276;-74
2022/07/16 07:43:30;;;;;;;2.17;1.50;;;;;;;;;;5001196;28;20201;-75
2022/07/16 07:45:57;;;;;;;2.60;1.70;;;;;;;;;;5001811;28;20182;-75
2022/07/16 07:48:23;;;;;;;3.97;1.80;;;;;;;;;;5002096;28;20230;-74
2022/07/16 07:50:49;;;;;;;2.37;1.53;;;;;;;;;;5000929;28;20218;-74
2022/07/16 07:53:16;;;;;;;2.93;1.60;;;;;;;;;;5003924;28;20183;-74
2022/07/16 07:55:42;;;;;;;2.30;1.70;;;;;;;;;;5001746;28;20228;-74
2022/07/16 07:58:09;;;;;;;2.97;1.73;;;;;;;;;;5002749;28;20255;-74
2022/07/16 08:00:36;;;;;;;2.37;1.93;;;;;;;;;;5002255;28;20258;-74
2022/07/16 08:03:02;;;;;;;4.33;1.83;;;;;;;;;;4985200;28;20206;-74
2022/07/16 08:05:28;;;;;;;3.97;1.83;;;;;;;;;;5002921;28;21251;-74
2022/07/16 08:07:55;;;;;;;4.20;1.90;;;;;;;;;;5001567;28;20186;-74
2022/07/16 08:10:21;;;;;;;2.57;1.90;;;;;;;;;;5004993;28;20205;-74
2022/07/16 08:12:47;;;;;;;4.03;1.80;;;;;;;;;;4985133;28;20242;-74
2022/07/16 08:15:14;;;;;;;5.00;1.90;;;;;;;;;;4983798;28;20262;-74
2022/07/16 08:17:40;;;;;;;4.07;1.87;;;;;;;;;;5000133;28;20183;-74
2022/07/16 08:20:07;;;;;;;3.60;1.70;;;;;;;;;;5001238;28;20896;-74
2022/07/16 08:22:33;;;;;;;6.63;2.00;;;;;;;;;;4998416;28;20207;-76
2022/07/16 08:27:44;;;;;;;7.73;2.57;;;;;;;;;;5000512;28;20732;-76
2022/07/16 08:30:11;;;;;;;5.83;1.90;;;;;;;;;;5004632;28;20277;-77
2022/07/16 08:32:37;;;;;;;3.87;1.87;;;;;;;;;;5002593;28;22228;-78
2022/07/16 08:35:04;;;;;;;3.97;1.70;;;;;;;;;;5005462;28;20224;-74
2022/07/16 08:37:32;;;;;;;4.53;1.70;;;;;;;;;;5006392;28;20184;-75
2022/07/16 08:39:58;;;;;;;2.83;1.53;;;;;;;;;;5003043;28;20210;-76
2022/07/16 08:42:25;;;;;;;2.33;1.60;;;;;;;;;;5002462;28;20227;-75
2022/07/16 08:44:51;;;;;;;6.53;1.63;;;;;;;;;;5008698;28;20774;-76
2022/07/16 08:47:17;;;;;;;4.00;1.50;;;;;;;;;;4983121;28;20198;-77
2022/07/16 08:49:44;;;;;;;4.30;1.97;;;;;;;;;;4991556;28;20281;-76
2022/07/16 08:52:11;;;;;;;5.20;2.90;;;;;;;;;;4993802;28;20211;-76
2022/07/16 08:54:38;;;;;;;3.03;1.60;;;;;;;;;;5009488;28;20210;-76
2022/07/16 08:57:04;;;;;;;3.83;1.57;;;;;;;;;;4993869;28;20184;-76
2022/07/16 08:59:30;;;;;;;2.50;1.63;;;;;;;;;;5007827;28;20237;-78
2022/07/16 09:01:56;;;;;;;2.27;1.80;;;;;;;;;;5009005;28;20199;-78
2022/07/16 09:04:23;;;;;;;4.37;1.73;;;;;;;;;;4991281;28;20194;-78
2022/07/16 09:06:49;;;;;;;5.00;1.97;;;;;;;;;;5008936;28;20214;-78
2022/07/16 09:09:15;;;;;;;6.27;1.83;;;;;;;;;;5014439;28;20191;-78
2022/07/16 09:11:41;;;;;;;2.20;1.47;;;;;;;;;;5011491;28;20713;-78
2022/07/16 09:14:09;;;;;;;3.97;1.70;;;;;;;;;;5011452;28;20180;-78
2022/07/16 09:16:37;;;;;;;3.47;1.80;;;;;;;;;;5010509;28;20241;-78
2022/07/16 09:19:08;;;;;;;3.87;1.70;;;;;;;;;;5009964;28;20183;-78
2022/07/16 09:21:35;;;;;;;4.37;1.60;;;;;;;;;;5012136;28;20629;-78
2022/07/16 09:24:01;;;;;;;2.63;1.80;;;;;;;;;;4981093;28;20278;-78
2022/07/16 09:26:28;;;;;;;2.27;1.50;;;;;;;;;;5011004;28;20183;-78
2022/07/16 09:28:54;;;;;;;2.50;1.70;;;;;;;;;;5009284;28;20190;-78
2022/07/16 09:31:39;;;;;;;4.87;1.70;;;;;;;;;;4993466;28;20227;-78
2022/07/16 09:34:06;;;;;;;2.97;1.70;;;;;;;;;;4977866;28;20297;-78
2022/07/16 09:36:33;;;;;;;2.57;1.70;;;;;;;;;;4998093;28;20194;-81
2022/07/16 09:38:59;;;;;;;3.30;1.70;;;;;;;;;;4997918;28;20183;-82
2022/07/16 09:41:25;;;;;;;4.40;1.70;;;;;;;;;;4964854;28;20578;-83
2022/07/16 09:43:52;;;;;;;2.90;1.93;;;;;;;;;;4991974;28;20226;-82
2022/07/16 09:46:19;;;;;;;3.50;1.80;;;;;;;;;;5013227;28;20195;-77
2022/07/16 09:48:46;;;;;;;3.00;1.80;;;;;;;;;;4994276;28;20242;-77
2022/07/16 09:51:26;;;;;;;2.90;1.57;;;;;;;;;;5012736;28;20265;-81
2022/07/16 09:53:53;;;;;;;2.90;1.50;;;;;;;;;;5009773;28;20172;-81
2022/07/16 09:56:23;;;;;;;4.07;1.70;;;;;;;;;;5013233;28;20183;-80
2022/07/16 09:58:53;;;;;;;2.40;1.60;;;;;;;;;;5006888;28;21097;-80
2022/07/16 10:01:20;;;;;;;4.33;1.50;;;;;;;;;;5007982;28;20235;-81
2022/07/16 10:03:47;;;;;;;2.90;1.67;;;;;;;;;;5007232;28;20521;-80
2022/07/16 10:06:13;;;;;;;2.33;1.60;;;;;;;;;;4992195;28;20205;-80
2022/07/16 10:08:40;;;;;;;2.00;1.70;;;;;;;;;;4991265;28;20306;-80
2022/07/16 10:11:07;;;;;;;2.77;1.60;;;;;;;;;;5010749;28;20207;-80
2022/07/16 10:13:34;;;;;;;2.63;1.77;;;;;;;;;;5012290;28;20203;-80
2022/07/16 10:16:00;;;;;;;3.73;1.73;;;;;;;;;;5013295;28;20295;-78
2022/07/16 10:18:32;;;;;;;3.00;2.00;;;;;;;;;;5011999;28;20565;-83
2022/07/16 10:21:13;;;;;;;3.53;2.00;;;;;;;;;;5009932;28;20222;-80
2022/07/16 10:23:41;;;;;;;3.50;1.60;;;;;;;;;;5009950;28;20179;-80
2022/07/16 10:26:13;;;;;;;2.97;1.67;;;;;;;;;;5012846;28;20268;-80
2022/07/16 10:28:41;;;;;;;2.60;1.90;;;;;;;;;;5011269;28;20199;-79
2022/07/16 10:31:26;;;;;;;2.67;1.60;;;;;;;;;;5011072;28;20195;-79
2022/07/16 10:34:10;;;;;;;2.10;1.73;;;;;;;;;;5011126;28;20250;-77
2022/07/16 10:36:54;;;;;;;3.17;2.17;;;;;;;;;;4990066;28;20226;-75
2022/07/16 10:39:21;;;;;;;4.27;1.97;;;;;;;;;;5008195;28;20205;-76
2022/07/16 10:41:48;;;;;;;2.20;2.00;;;;;;;;;;5008188;28;20290;-77
2022/07/16 10:44:14;;;;;;;3.20;1.80;;;;;;;;;;4990278;28;20254;-77
2022/07/16 10:46:53;;;;;;;4.07;1.80;;;;;;;;;;5005693;28;20199;-75
2022/07/16 10:49:20;;;;;;;3.80;1.63;;;;;;;;;;5007235;28;20745;-76
2022/07/16 10:51:58;;;;;;;2.87;1.70;;;;;;;;;;4989572;28;20742;-75
2022/07/16 10:54:25;;;;;;;8.10;1.90;;;;;;;;;;5009143;28;20194;-75
2022/07/16 10:56:51;;;;;;;7.40;2.30;;;;;;;;;;5006304;28;20294;-75
2022/07/16 10:59:19;;;;;;;4.03;2.00;;;;;;;;;;5005595;28;20195;-75
2022/07/16 11:01:46;;;;;;;3.90;1.83;;;;;;;;;;5009805;28;20194;-75
2022/07/16 11:04:29;;;;;;;2.67;2.00;;;;;;;;;;5007499;28;20187;-79
2022/07/16 11:07:22;;;;;;;2.67;1.80;;;;;;;;;;5017828;28;20193;-77
2022/07/16 11:09:59;;;;;;;3.63;1.97;;;;;;;;;;5016570;28;20237;-77
2022/07/16 11:12:40;;;;;;;2.27;1.70;;;;;;;;;;5008000;28;20269;-77
2022/07/16 11:15:38;;;;;;;3.07;1.83;;;;;;;;;;4992217;28;20209;-79
2022/07/16 11:18:35;;;;;;;2.60;1.60;;;;;;;;;;4997511;28;20257;-77
2022/07/16 11:21:05;;;;;;;3.13;1.97;;;;;;;;;;5010494;28;20288;-77
2022/07/16 11:23:31;;;;;;;3.63;2.10;;;;;;;;;;5012509;28;20705;-77
2022/07/16 11:25:59;;;;;;;3.10;2.00;;;;;;;;;;5010281;28;20277;-78
2022/07/16 11:28:25;;;;;;;3.60;1.67;;;;;;;;;;5005270;28;20638;-78
2022/07/16 11:31:05;;;;;;;3.77;1.80;;;;;;;;;;5003815;28;20264;-76
2022/07/16 11:33:32;;;;;;;3.00;2.00;;;;;;;;;;5008279;28;20187;-77
2022/07/16 11:36:05;;;;;;;3.53;1.80;;;;;;;;;;5012345;28;20189;-78
2022/07/16 11:38:32;;;;;;;2.90;2.00;;;;;;;;;;5007376;28;20544;-79
2022/07/16 11:40:58;;;;;;;4.60;2.03;;;;;;;;;;5005250;28;20326;-77
2022/07/16 11:43:28;;;;;;;3.87;1.90;;;;;;;;;;5005871;28;20513;-75
2022/07/16 11:45:55;;;;;;;2.63;2.00;;;;;;;;;;5008382;28;20689;-77
2022/07/16 11:48:21;;;;;;;6.53;1.97;;;;;;;;;;5008888;28;20223;-77
2022/07/16 11:50:47;;;;;;;3.47;1.70;;;;;;;;;;5009550;28;20219;-77
2022/07/16 11:53:14;;;;;;;2.53;1.80;;;;;;;;;;5009937;28;20604;-78
2022/07/16 11:55:42;;;;;;;5.03;1.87;;;;;;;;;;5007801;28;20187;-77
2022/07/16 11:58:08;;;;;;;4.17;1.90;;;;;;;;;;5006131;28;20186;-76
2022/07/16 12:00:48;;;;;;;1.77;1.60;;;;;;;;;;5005479;28;20286;-76
2022/07/16 12:03:14;;;;;;;2.60;1.70;;;;;;;;;;5007334;28;20285;-76
2022/07/16 12:05:40;;;;;;;2.67;1.67;;;;;;;;;;4988939;28;20195;-77
2022/07/16 12:08:08;;;;;;;2.20;1.70;;;;;;;;;;5004436;28;20214;-75
2022/07/16 12:10:35;;;;;;;2.97;1.80;;;;;;;;;;4990907;28;20203;-75
2022/07/16 12:13:07;;;;;;;2.40;1.80;;;;;;;;;;5013160;28;20430;-76
2022/07/16 12:15:52;;;;;;;4.33;1.90;;;;;;;;;;5012332;28;20183;-75
2022/07/16 12:18:19;;;;;;;3.03;1.70;;;;;;;;;;5012955;28;20184;-75
2022/07/16 12:20:45;;;;;;;3.10;1.90;;;;;;;;;;5010936;28;20204;-76
2022/07/16 12:23:13;;;;;;;3.63;2.00;;;;;;;;;;5013123;28;20218;-76
2022/07/16 12:25:45;;;;;;;2.80;1.80;;;;;;;;;;5010383;28;20234;-76
2022/07/16 12:28:11;;;;;;;1.93;1.60;;;;;;;;;;5007505;28;20245;-75
2022/07/16 12:30:54;;;;;;;2.33;1.70;;;;;;;;;;5011463;28;20209;-75
2022/07/16 12:33:21;;;;;;;3.37;2.50;;;;;;;;;;5013166;28;20207;-75
2022/07/16 12:35:50;;;;;;;2.73;2.20;;;;;;;;;;5008085;28;20516;-75
2022/07/16 12:38:38;;;;;;;3.07;2.00;;;;;;;;;;5003371;28;20179;-75
2022/07/16 12:41:06;;;;;;;2.27;1.73;;;;;;;;;;4997838;28;20306;-75
2022/07/16 12:43:32;;;;;;;2.03;1.73;;;;;;;;;;5011402;28;20526;-76
2022/07/16 12:45:59;;;;;;;3.73;1.97;;;;;;;;;;5016759;28;20188;-76
2022/07/16 12:48:26;;;;;;;2.23;1.73;;;;;;;;;;5012302;28;20273;-76
2022/07/16 12:50:53;;;;;;;2.43;1.83;;;;;;;;;;5013136;28;20243;-75
2022/07/16 12:53:19;;;;;;;4.27;1.90;;;;;;;;;;5021790;28;20255;-75
2022/07/16 12:58:48;;;;;;;2.20;1.80;;;;;;;;;;5013279;28;20193;-76
2022/07/16 13:01:22;;;;;;;3.57;2.07;;;;;;;;;;4994526;28;20238;-79
2022/07/16 13:03:48;;;;;;;3.37;2.00;;;;;;;;;;5011978;28;20181;-78
2022/07/16 13:06:15;;;;;;;1.90;1.73;;;;;;;;;;5017103;28;20214;-81
2022/07/16 13:08:41;;;;;;;2.33;1.80;;;;;;;;;;5015789;28;20582;-80
2022/07/16 13:11:10;;;;;;;3.00;1.90;;;;;;;;;;5008736;28;20212;-79
2022/07/16 13:13:37;;;;;;;6.83;2.20;;;;;;;;;;5007936;28;20182;-81
2022/07/16 13:16:04;;;;;;;3.03;2.00;;;;;;;;;;5010923;28;20648;-79
2022/07/16 13:18:34;;;;;;;1.80;1.70;;;;;;;;;;5013997;28;20191;-80
2022/07/16 13:21:05;;;;;;;4.57;1.90;;;;;;;;;;4998765;28;20233;-80
2022/07/16 13:23:31;;;;;;;3.53;1.80;;;;;;;;;;4978238;28;20632;-80
2022/07/16 13:25:57;;;;;;;3.37;2.00;;;;;;;;;;5015292;28;20178;-81
2022/07/16 13:28:24;;;;;;;3.50;2.10;;;;;;;;;;5018441;28;20294;-80
2022/07/16 13:30:50;;;;;;;2.60;1.90;;;;;;;;;;5013601;28;20211;-80
2022/07/16 13:33:17;;;;;;;2.77;2.10;;;;;;;;;;4997305;28;20221;-79
2022/07/16 13:35:44;;;;;;;2.90;1.90;;;;;;;;;;5010803;28;20264;-80
2022/07/16 13:38:10;;;;;;;3.93;1.90;;;;;;;;;;5011016;28;20201;-79
2022/07/16 13:40:36;;;;;;;7.10;1.97;;;;;;;;;;5012964;28;20223;-79
2022/07/16 13:43:03;;;;;;;5.07;1.70;;;;;;;;;;4992142;28;20636;-79
2022/07/16 13:45:29;;;;;;;2.87;1.87;;;;;;;;;;5010971;28;20335;-79
2022/07/16 13:48:01;;;;;;;2.47;2.07;;;;;;;;;;5012683;28;20217;-79
2022/07/16 13:50:27;;;;;;;2.67;2.00;;;;;;;;;;4976835;28;20774;-78
2022/07/16 13:52:53;;;;;;;2.80;1.80;;;;;;;;;;5007731;28;20207;-79
2022/07/16 13:55:20;;;;;;;6.03;1.90;;;;;;;;;;5011555;28;20189;-79
2022/07/16 14:00:31;;;;;;;3.30;2.00;;;;;;;;;;5008290;28;20193;-78
2022/07/16 14:02:57;;;;;;;2.13;1.90;;;;;;;;;;5009848;28;20336;-78
2022/07/16 14:05:23;;;;;;;2.10;1.90;;;;;;;;;;5011582;28;20776;-78
2022/07/16 14:07:50;;;;;;;3.50;2.20;;;;;;;;;;5012901;28;20208;-79
2022/07/16 14:10:16;;;;;;;2.17;1.97;;;;;;;;;;5017673;28;20178;-78
2022/07/16 14:12:43;;;;;;;2.30;1.90;;;;;;;;;;5020346;28;20213;-78
2022/07/16 14:15:10;;;;;;;2.43;2.00;;;;;;;;;;5011294;28;20187;-79
2022/07/16 14:17:37;;;;;;;2.80;1.97;;;;;;;;;;4986661;28;20184;-79
2022/07/16 14:20:04;;;;;;;2.47;1.93;;;;;;;;;;4986309;28;22281;-79
2022/07/16 14:22:30;;;;;;;1.93;1.70;;;;;;;;;;5010383;28;20841;-79
2022/07/16 14:24:57;;;;;;;2.03;1.77;;;;;;;;;;5010783;28;20257;-78
2022/07/16 14:27:23;;;;;;;4.67;1.80;;;;;;;;;;5006615;28;20187;-79
2022/07/16 14:29:49;;;;;;;2.40;1.93;;;;;;;;;;5012089;28;20189;-79
2022/07/16 14:32:15;;;;;;;2.30;1.80;;;;;;;;;;5015419;28;20215;-79
2022/07/16 14:34:41;;;;;;;1.97;1.60;;;;;;;;;;5019097;28;20170;-78
2022/07/16 14:37:08;;;;;;;2.60;1.80;;;;;;;;;;5012520;28;20892;-78
2022/07/16 14:39:34;;;;;;;2.10;1.90;;;;;;;;;;5011560;28;20188;-78
2022/07/16 14:42:00;;;;;;;2.03;1.80;;;;;;;;;;5012204;28;20214;-79
2022/07/16 14:44:26;;;;;;;3.30;1.70;;;;;;;;;;5009522;28;20526;-79
2022/07/16 14:46:53;;;;;;;4.03;1.80;;;;;;;;;;5011890;28;20197;-79
2022/07/16 14:49:19;;;;;;;4.10;1.70;;;;;;;;;;5005753;28;20203;-79
2022/07/16 14:51:45;;;;;;;2.47;1.87;;;;;;;;;;4998824;28;20219;-79
2022/07/16 14:54:12;;;;;;;2.27;1.80;;;;;;;;;;5007057;28;20184;-78
2022/07/16 14:56:38;;;;;;;3.27;2.20;;;;;;;;;;5010861;28;20176;-79
2022/07/16 14:59:05;;;;;;;2.87;2.17;;;;;;;;;;5013871;28;20221;-79